East Middlebury, Vermont
Current Conditions -  °F | °C
As of 12:55 AM on Wednesday 22 Oct 2014 (Local Time) from K6B0 Reporting Station
Haze Haze  
Wind Chill: 45°   Ceiling: 300
Heat Index: 47°   Visibility: 2mi
Dew Point: 47°   Wind: 5mph
Humidity: 100%   Direction: 360°N
Pressure: 30.07"   Gusts: NA
Location:  43.97°N, 73.11°W
Report Text: K6B0 220455Z AUTO 36004KT 2SM BR OVC003 09/09 A3007 RMK AO2 T00850085 401050069
Loading
Personal Weather Stations






























Interactive Weather Map New forecast layout! Learn more

10-Day Weather Forecast

Advertisements
Track Severe Weather on mobile